createdAt,value
2023-04-28T00:01:54.310Z,14.65
2023-04-28T00:04:27.216Z,14.61
2023-04-28T00:06:59.430Z,14.59
2023-04-28T00:09:31.801Z,14.59
2023-04-28T00:12:04.922Z,14.57
2023-04-28T00:14:37.070Z,14.65
2023-04-28T00:17:10.909Z,14.65
2023-04-28T00:19:43.332Z,14.65
2023-04-28T00:22:15.778Z,14.66
2023-04-28T00:24:48.325Z,14.66
2023-04-28T00:27:20.880Z,14.68
2023-04-28T00:29:53.251Z,14.65
2023-04-28T00:32:25.514Z,14.67
2023-04-28T00:34:59.214Z,14.64
2023-04-28T00:37:34.587Z,14.51
2023-04-28T00:40:07.560Z,14.57
2023-04-28T00:42:39.915Z,14.56
2023-04-28T00:45:12.183Z,14.55
2023-04-28T00:47:44.544Z,14.52
2023-04-28T00:50:18.171Z,14.52
2023-04-28T00:52:51.166Z,14.54
2023-04-28T00:55:25.253Z,14.52
2023-04-28T00:57:59.515Z,14.52
2023-04-28T01:00:31.554Z,14.48
2023-04-28T01:03:04.212Z,14.48
2023-04-28T01:05:38.557Z,14.45
2023-04-28T01:08:11.285Z,14.43
2023-04-28T01:10:47.255Z,14.42
2023-04-28T01:13:21.728Z,14.29
2023-04-28T01:15:54.727Z,14.25
2023-04-28T01:18:27.920Z,14.25
2023-04-28T01:21:01.070Z,14.31
2023-04-28T01:23:33.394Z,14.31
2023-04-28T01:26:05.825Z,14.32
2023-04-28T01:28:38.044Z,14.32
2023-04-28T01:31:10.527Z,14.24
2023-04-28T01:33:43.274Z,14.24
2023-04-28T01:36:15.367Z,14.30
2023-04-28T01:38:48.120Z,14.36
2023-04-28T01:41:20.882Z,14.36
2023-04-28T01:43:52.943Z,14.38
2023-04-28T01:46:25.038Z,14.39
2023-04-28T01:48:57.714Z,14.42
2023-04-28T01:51:30.043Z,14.45
2023-04-28T01:54:02.810Z,14.46
2023-04-28T01:56:35.567Z,14.49
2023-04-28T01:59:07.838Z,14.47
2023-04-28T02:01:40.303Z,14.45
2023-04-28T02:04:12.787Z,14.44
2023-04-28T02:06:46.165Z,14.41
2023-04-28T02:09:18.955Z,14.23
2023-04-28T02:11:51.139Z,14.41
2023-04-28T02:14:23.783Z,14.39
2023-04-28T02:16:56.950Z,14.43
2023-04-28T02:19:29.069Z,14.42
2023-04-28T02:22:01.497Z,14.43
2023-04-28T02:24:38.739Z,14.47
2023-04-28T02:27:11.063Z,14.50
2023-04-28T02:29:43.473Z,14.57
2023-04-28T02:32:15.558Z,14.60
2023-04-28T02:34:47.775Z,14.64
2023-04-28T02:37:19.718Z,14.72
2023-04-28T02:39:54.312Z,14.72
2023-04-28T02:42:27.021Z,14.75
2023-04-28T02:44:59.261Z,14.74
2023-04-28T02:47:33.143Z,14.76
2023-04-28T02:50:05.854Z,14.68
2023-04-28T02:52:38.429Z,14.81
2023-04-28T02:55:11.252Z,14.84
2023-04-28T02:57:43.397Z,14.76
2023-04-28T03:00:16.463Z,14.91
2023-04-28T03:02:50.447Z,14.98
2023-04-28T03:05:22.660Z,14.98
2023-04-28T03:07:54.820Z,15.02
2023-04-28T03:10:27.059Z,15.06
2023-04-28T03:12:59.176Z,15.10
2023-04-28T03:15:31.307Z,15.18
2023-04-28T03:18:03.486Z,15.18
2023-04-28T03:20:35.846Z,15.21
2023-04-28T03:23:08.031Z,15.27
2023-04-28T03:25:40.357Z,15.29
2023-04-28T03:28:12.693Z,15.32
2023-04-28T03:30:44.755Z,15.35
2023-04-28T03:33:17.286Z,15.38
2023-04-28T03:35:49.452Z,15.44
2023-04-28T03:38:22.835Z,15.47
2023-04-28T03:40:55.521Z,15.47
2023-04-28T03:43:38.546Z,15.48
2023-04-28T03:46:12.456Z,15.46
2023-04-28T03:48:46.363Z,15.49
2023-04-28T03:51:18.634Z,15.50
2023-04-28T03:53:50.795Z,15.54
2023-04-28T03:56:23.177Z,15.62
2023-04-28T03:58:55.891Z,15.62
2023-04-28T04:01:28.246Z,15.85
2023-04-28T04:04:00.487Z,15.99
2023-04-28T04:06:34.200Z,16.11
2023-04-28T04:09:06.743Z,16.21
2023-04-28T04:11:39.150Z,16.30
2023-04-28T04:14:11.556Z,16.35
2023-04-28T04:16:44.348Z,16.43
2023-04-28T04:19:16.385Z,16.47
2023-04-28T04:21:49.542Z,16.53
2023-04-28T04:24:21.873Z,16.56
2023-04-28T04:26:54.352Z,16.61
2023-04-28T04:29:28.396Z,16.68
2023-04-28T04:32:01.224Z,16.74
2023-04-28T04:34:34.369Z,16.79
2023-04-28T04:37:07.424Z,16.84
2023-04-28T04:39:41.202Z,16.95
2023-04-28T04:42:23.884Z,17.02
2023-04-28T04:44:49.661Z,17.10
2023-04-28T04:47:26.489Z,17.16
2023-04-28T04:49:59.062Z,17.19
2023-04-28T04:52:33.079Z,17.18
2023-04-28T04:55:07.157Z,17.15
2023-04-28T04:57:40.048Z,17.11
2023-04-28T05:00:14.724Z,17.07
2023-04-28T05:02:47.253Z,17.08
2023-04-28T05:05:22.834Z,17.17
2023-04-28T05:08:08.671Z,17.35
2023-04-28T05:10:43.227Z,17.61
2023-04-28T05:13:15.921Z,17.89
2023-04-28T05:15:48.385Z,18.13
2023-04-28T05:18:28.535Z,18.30
2023-04-28T05:21:01.872Z,18.40
2023-04-28T05:23:33.913Z,18.43
2023-04-28T05:26:06.618Z,18.45
2023-04-28T05:28:41.766Z,18.46
2023-04-28T05:31:14.087Z,18.45
2023-04-28T05:33:46.621Z,18.36
2023-04-28T05:36:19.560Z,18.25
2023-04-28T05:38:52.126Z,18.10
2023-04-28T05:41:26.136Z,17.99
2023-04-28T05:43:59.534Z,17.94
2023-04-28T05:46:32.485Z,17.93
2023-04-28T05:49:04.915Z,17.92
2023-04-28T05:51:41.561Z,17.86
2023-04-28T05:54:14.635Z,17.78
2023-04-28T05:56:48.279Z,17.69
2023-04-28T05:59:20.466Z,17.90
2023-04-28T06:01:53.427Z,17.66
2023-04-28T06:04:26.651Z,17.59
2023-04-28T06:06:59.191Z,17.59
2023-04-28T06:09:32.244Z,17.62
2023-04-28T06:12:05.523Z,17.62
2023-04-28T06:14:38.806Z,17.61
2023-04-28T06:17:11.044Z,17.63
2023-04-28T06:19:43.514Z,17.64
2023-04-28T06:22:15.853Z,17.67
2023-04-28T06:24:48.126Z,17.76
2023-04-28T06:27:22.201Z,18.00
2023-04-28T06:29:54.878Z,18.35
2023-04-28T06:32:26.872Z,18.64
2023-04-28T06:34:59.832Z,18.89
2023-04-28T06:37:33.758Z,19.11
2023-04-28T06:40:07.148Z,19.26
2023-04-28T06:42:39.876Z,19.35
2023-04-28T06:45:17.801Z,19.67
2023-04-28T06:47:52.704Z,19.55
2023-04-28T06:50:25.544Z,19.71
2023-04-28T06:52:59.496Z,19.85
2023-04-28T06:55:34.121Z,19.98
2023-04-28T06:58:06.628Z,20.13
2023-04-28T07:00:39.055Z,20.19
2023-04-28T07:03:11.618Z,20.30
2023-04-28T07:05:43.872Z,20.48
2023-04-28T07:08:17.717Z,20.57
2023-04-28T07:10:50.179Z,20.73
2023-04-28T07:13:22.173Z,20.86
2023-04-28T07:15:54.342Z,20.92
2023-04-28T07:18:26.726Z,20.97
2023-04-28T07:20:59.366Z,21.07
2023-04-28T07:23:31.996Z,21.05
2023-04-28T07:26:04.277Z,21.02
2023-04-28T07:28:37.264Z,21.06
2023-04-28T07:31:09.775Z,21.02
2023-04-28T07:33:42.266Z,20.95
2023-04-28T07:36:14.722Z,20.80
2023-04-28T07:38:47.100Z,20.56
2023-04-28T07:41:19.784Z,20.24
2023-04-28T07:43:51.879Z,20.01
2023-04-28T07:46:24.308Z,19.87
2023-04-28T07:48:58.672Z,19.87
2023-04-28T07:51:30.958Z,19.89
2023-04-28T07:54:03.305Z,19.98
2023-04-28T07:56:35.749Z,20.02
2023-04-28T07:59:07.894Z,20.09
2023-04-28T08:01:40.299Z,20.19
2023-04-28T08:04:13.160Z,20.44
2023-04-28T08:06:45.907Z,20.74
2023-04-28T08:09:18.332Z,21.03
2023-04-28T08:11:51.599Z,21.46
2023-04-28T08:14:23.711Z,21.84
2023-04-28T08:16:56.071Z,22.11
2023-04-28T08:19:28.612Z,22.06
2023-04-28T08:22:02.617Z,21.83
2023-04-28T08:24:34.993Z,21.45
2023-04-28T08:27:07.449Z,21.02
2023-04-28T08:29:40.567Z,20.56
2023-04-28T08:32:12.699Z,20.09
2023-04-28T08:34:44.967Z,19.59
2023-04-28T08:37:17.238Z,19.14
2023-04-28T08:39:49.311Z,18.61
2023-04-28T08:42:21.583Z,18.19
2023-04-28T08:44:56.471Z,17.85
2023-04-28T08:47:40.848Z,17.61
2023-04-28T08:50:14.358Z,17.33
2023-04-28T08:52:48.531Z,17.16
2023-04-28T08:55:21.474Z,16.99
2023-04-28T08:57:54.963Z,16.94
2023-04-28T09:00:27.426Z,16.98
2023-04-28T09:02:59.581Z,17.08
2023-04-28T09:05:32.339Z,17.19
2023-04-28T09:08:04.874Z,17.28
2023-04-28T09:10:37.207Z,17.38
2023-04-28T09:13:09.861Z,17.38
2023-04-28T09:15:42.159Z,17.39
2023-04-28T09:18:16.015Z,17.33
2023-04-28T09:20:48.340Z,17.50
2023-04-28T09:23:22.698Z,17.76
2023-04-28T09:26:03.739Z,18.03
2023-04-28T09:28:37.146Z,18.35
2023-04-28T09:31:28.450Z,18.89
2023-04-28T09:34:01.820Z,19.60
2023-04-28T09:36:34.068Z,20.33
2023-04-28T09:39:06.806Z,20.89
2023-04-28T09:41:44.424Z,21.11
2023-04-28T09:44:19.595Z,21.19
2023-04-28T09:46:52.049Z,21.42
2023-04-28T09:49:24.324Z,21.57
2023-04-28T09:51:57.945Z,21.75
2023-04-28T09:54:32.581Z,21.79
2023-04-28T09:57:05.230Z,21.58
2023-04-28T09:59:38.558Z,21.24
2023-04-28T10:02:28.789Z,20.95
2023-04-28T10:04:47.155Z,20.71
2023-04-28T10:07:21.262Z,20.51
2023-04-28T10:09:54.024Z,20.20
2023-04-28T10:12:27.125Z,19.93
2023-04-28T10:15:01.095Z,19.68
2023-04-28T10:17:36.287Z,19.50
2023-04-28T10:20:10.962Z,19.39
2023-04-28T10:22:43.665Z,19.38
2023-04-28T10:25:30.058Z,19.70
2023-04-28T10:28:05.303Z,19.43
2023-04-28T10:30:38.221Z,19.41
2023-04-28T10:33:16.351Z,19.41
2023-04-28T10:35:48.613Z,19.33
2023-04-28T10:38:23.082Z,19.21
2023-04-28T10:40:55.690Z,19.08
2023-04-28T10:43:32.164Z,18.97
2023-04-28T10:46:06.866Z,18.79
2023-04-28T10:48:51.375Z,18.49
2023-04-28T10:51:24.536Z,18.11
2023-04-28T10:54:02.968Z,17.76
2023-04-28T10:56:35.352Z,17.31
2023-04-28T10:59:26.791Z,16.83
2023-04-28T11:02:02.240Z,16.44
2023-04-28T11:04:38.148Z,16.06
2023-04-28T11:07:14.887Z,15.79
2023-04-28T11:09:50.021Z,15.47
2023-04-28T11:12:22.248Z,15.47
2023-04-28T11:14:54.840Z,15.47
2023-04-28T11:17:36.607Z,15.58
2023-04-28T11:20:11.273Z,15.67
2023-04-28T11:22:43.795Z,15.68
2023-04-28T11:25:15.879Z,15.61
2023-04-28T11:27:48.021Z,15.42
2023-04-28T11:30:24.368Z,15.42
2023-04-28T11:32:57.960Z,15.35
2023-04-28T11:35:33.358Z,15.35
2023-04-28T11:38:05.723Z,15.46
2023-04-28T11:40:37.790Z,15.57
2023-04-28T11:43:10.055Z,15.70
2023-04-28T11:45:45.053Z,15.82
2023-04-28T11:48:23.798Z,15.98
2023-04-28T11:50:56.142Z,16.21
2023-04-28T11:53:47.763Z,16.53
2023-04-28T11:56:20.587Z,17.00
2023-04-28T11:59:06.620Z,17.64
2023-04-28T12:01:49.857Z,18.01
2023-04-28T12:04:30.323Z,18.23
2023-04-28T12:07:13.568Z,18.25
2023-04-28T12:09:48.408Z,18.14
2023-04-28T12:12:49.107Z,17.91
2023-04-28T12:15:09.726Z,17.67
2023-04-28T12:17:44.197Z,17.36
2023-04-28T12:20:38.475Z,17.07
2023-04-28T12:23:11.267Z,16.59
2023-04-28T12:25:48.437Z,16.59
2023-04-28T12:28:21.013Z,16.54
2023-04-28T12:30:54.726Z,16.36
2023-04-28T12:33:30.437Z,16.24
2023-04-28T12:36:03.182Z,16.19
2023-04-28T12:38:35.609Z,16.15
2023-04-28T12:41:08.065Z,16.07
2023-04-28T12:43:41.140Z,15.92
2023-04-28T12:46:15.035Z,15.98
2023-04-28T12:48:47.457Z,15.98
2023-04-28T12:51:20.566Z,16.07
2023-04-28T12:53:52.787Z,16.12
2023-04-28T12:56:25.352Z,16.22
2023-04-28T12:58:57.849Z,16.29
2023-04-28T13:01:30.880Z,16.34
2023-04-28T13:04:03.959Z,16.34
2023-04-28T13:06:36.943Z,16.34
2023-04-28T13:09:09.801Z,16.31
2023-04-28T13:11:43.389Z,16.33
2023-04-28T13:14:15.855Z,16.35
2023-04-28T13:16:48.352Z,16.36
2023-04-28T13:19:20.496Z,16.33
2023-04-28T13:21:52.814Z,16.21
2023-04-28T13:24:25.151Z,16.24
2023-04-28T13:26:58.668Z,16.25
2023-04-28T13:29:30.763Z,16.24
2023-04-28T13:32:02.908Z,16.24
2023-04-28T13:34:35.513Z,16.20
2023-04-28T13:37:07.962Z,16.09
2023-04-28T13:39:40.576Z,15.96
2023-04-28T13:42:13.329Z,15.64
2023-04-28T13:44:47.103Z,15.72
2023-04-28T13:47:19.502Z,15.60
2023-04-28T13:49:51.787Z,15.49
2023-04-28T13:52:23.767Z,15.32
2023-04-28T13:54:55.762Z,15.22
2023-04-28T13:57:27.895Z,15.14
2023-04-28T14:00:00.022Z,15.02
2023-04-28T14:02:34.007Z,14.90
2023-04-28T14:05:06.780Z,14.75
2023-04-28T14:07:39.008Z,14.41
2023-04-28T14:10:12.094Z,14.41
2023-04-28T14:12:44.251Z,14.30
2023-04-28T14:15:18.142Z,14.00
2023-04-28T14:17:50.455Z,14.00
2023-04-28T14:20:23.219Z,14.06
2023-04-28T14:22:55.444Z,14.03
2023-04-28T14:25:27.592Z,13.93
2023-04-28T14:28:00.160Z,13.90
2023-04-28T14:30:32.458Z,13.88
2023-04-28T14:33:04.699Z,13.88
2023-04-28T14:35:36.780Z,13.83
2023-04-28T14:38:09.269Z,13.81
2023-04-28T14:40:43.045Z,13.77
2023-04-28T14:43:15.841Z,13.70
2023-04-28T14:45:49.268Z,13.76
2023-04-28T14:48:21.608Z,13.67
2023-04-28T14:50:53.967Z,13.69
2023-04-28T14:53:26.576Z,13.71
2023-04-28T14:58:34.369Z,13.61
2023-04-28T15:01:07.008Z,13.55
2023-04-28T15:03:39.511Z,13.53
2023-04-28T15:06:12.330Z,13.46
2023-04-28T15:08:44.742Z,13.32
2023-04-28T15:11:16.992Z,13.21
2023-04-28T15:13:49.133Z,13.22
2023-04-28T15:16:21.961Z,13.19
2023-04-28T15:18:54.065Z,13.11
2023-04-28T15:21:26.431Z,13.02
2023-04-28T15:23:59.814Z,12.98
2023-04-28T15:26:32.193Z,12.98
2023-04-28T15:29:04.773Z,12.94
2023-04-28T15:31:37.745Z,12.96
2023-04-28T15:34:10.664Z,12.85
2023-04-28T15:36:44.233Z,12.83
2023-04-28T15:39:16.662Z,12.84
2023-04-28T15:41:48.990Z,12.74
2023-04-28T15:44:21.186Z,12.68
2023-04-28T15:46:53.361Z,12.59
2023-04-28T15:49:26.035Z,12.55
2023-04-28T15:51:58.584Z,12.48
2023-04-28T15:54:31.192Z,12.41
2023-04-28T15:57:03.620Z,12.38
2023-04-28T15:59:35.984Z,12.35
2023-04-28T16:02:09.069Z,12.36
2023-04-28T16:04:41.568Z,12.37
2023-04-28T16:07:14.259Z,12.37
2023-04-28T16:09:46.670Z,12.38
2023-04-28T16:12:18.870Z,12.32
2023-04-28T16:14:51.458Z,12.29
2023-04-28T16:17:24.231Z,12.21
2023-04-28T16:19:57.279Z,12.15
2023-04-28T16:22:30.065Z,12.08
2023-04-28T16:25:04.010Z,12.04
2023-04-28T16:27:37.614Z,11.95
2023-04-28T16:30:10.600Z,11.94
2023-04-28T16:32:43.000Z,11.92
2023-04-28T16:35:15.684Z,11.90
2023-04-28T16:37:47.768Z,11.88
2023-04-28T16:40:20.339Z,11.77
2023-04-28T16:42:54.227Z,11.71
2023-04-28T16:45:26.240Z,11.60
2023-04-28T16:47:58.729Z,11.55
2023-04-28T16:50:31.869Z,11.48
2023-04-28T16:53:04.119Z,11.44
2023-04-28T16:55:39.689Z,11.44
2023-04-28T16:58:12.843Z,11.49
2023-04-28T17:00:45.617Z,11.50
2023-04-28T17:03:18.498Z,11.38
2023-04-28T17:05:51.185Z,11.34
2023-04-28T17:08:23.039Z,11.32
2023-04-28T17:10:55.554Z,11.32
2023-04-28T17:13:27.949Z,11.29
2023-04-28T17:16:00.613Z,11.24
2023-04-28T17:18:33.783Z,11.22
2023-04-28T17:21:07.204Z,11.29
2023-04-28T17:23:39.599Z,11.16
2023-04-28T17:26:12.190Z,11.07
2023-04-28T17:28:44.330Z,10.98
2023-04-28T17:31:16.795Z,10.88
2023-04-28T17:33:50.634Z,10.79
2023-04-28T17:36:25.572Z,10.75
2023-04-28T17:38:58.157Z,10.72
2023-04-28T17:41:30.395Z,10.73
2023-04-28T17:44:02.733Z,10.70
2023-04-28T17:46:34.872Z,10.71
2023-04-28T17:49:06.925Z,10.72
2023-04-28T17:51:39.154Z,10.75
2023-04-28T17:54:11.424Z,10.72
2023-04-28T17:56:43.652Z,10.68
2023-04-28T17:59:17.084Z,10.67
2023-04-28T18:01:49.406Z,10.61
2023-04-28T18:04:22.091Z,10.57
2023-04-28T18:06:54.291Z,10.46
2023-04-28T18:09:27.321Z,10.42
2023-04-28T18:11:59.720Z,10.38
2023-04-28T18:14:32.173Z,10.35
2023-04-28T18:17:04.278Z,10.44
2023-04-28T18:19:36.779Z,10.34
2023-04-28T18:22:08.763Z,10.26
2023-04-28T18:24:40.982Z,10.20
2023-04-28T18:27:13.443Z,10.17
2023-04-28T18:29:45.613Z,10.17
2023-04-28T18:32:17.880Z,10.09
2023-04-28T18:34:50.226Z,10.08
2023-04-28T18:37:23.913Z,10.11
2023-04-28T18:39:58.704Z,10.04
2023-04-28T18:42:33.380Z,9.97
2023-04-28T18:45:06.563Z,9.92
2023-04-28T18:47:38.799Z,9.91
2023-04-28T18:50:11.584Z,9.91
2023-04-28T18:52:43.667Z,9.88
2023-04-28T18:55:17.241Z,9.87
2023-04-28T18:57:53.072Z,9.76
2023-04-28T19:00:27.351Z,9.63
2023-04-28T19:03:00.762Z,9.55
2023-04-28T19:05:34.094Z,9.52
2023-04-28T19:08:10.817Z,9.32
2023-04-28T19:10:41.624Z,9.24
2023-04-28T19:13:14.451Z,9.14
2023-04-28T19:15:47.025Z,9.09
2023-04-28T19:18:19.448Z,9.00
2023-04-28T19:20:52.461Z,8.94
2023-04-28T19:23:25.466Z,8.89
2023-04-28T19:25:59.397Z,8.90
2023-04-28T19:28:31.610Z,8.89
2023-04-28T19:31:04.494Z,8.93
2023-04-28T19:33:36.777Z,8.93
2023-04-28T19:36:10.046Z,8.87
2023-04-28T19:38:42.344Z,8.82
2023-04-28T19:41:14.995Z,8.71
2023-04-28T19:43:47.118Z,8.73
2023-04-28T19:46:19.616Z,8.58
2023-04-28T19:48:52.925Z,8.44
2023-04-28T19:51:24.957Z,8.35
2023-04-28T19:53:57.095Z,8.33
2023-04-28T19:56:29.262Z,8.26
2023-04-28T19:59:01.264Z,8.15
2023-04-28T20:01:33.658Z,8.11
2023-04-28T20:04:05.930Z,7.99
2023-04-28T20:06:38.447Z,7.93
2023-04-28T20:09:11.027Z,7.93
2023-04-28T20:11:43.334Z,7.86
2023-04-28T20:14:15.759Z,7.89
2023-04-28T20:16:47.771Z,7.78
2023-04-28T20:19:19.946Z,7.74
2023-04-28T20:21:52.566Z,7.72
2023-04-28T20:24:24.867Z,7.71
2023-04-28T20:26:58.467Z,7.73
2023-04-28T20:29:33.934Z,7.65
2023-04-28T20:32:06.513Z,7.59
2023-04-28T20:34:40.024Z,7.80
2023-04-28T20:37:13.526Z,7.61
2023-04-28T20:39:45.572Z,7.61
2023-04-28T20:42:17.952Z,7.65
2023-04-28T20:44:50.955Z,7.54
2023-04-28T20:47:23.102Z,7.50
2023-04-28T20:49:55.109Z,7.38
2023-04-28T20:52:28.971Z,7.35
2023-04-28T20:55:01.168Z,7.36
2023-04-28T20:57:33.638Z,7.44
2023-04-28T21:00:07.682Z,7.35
2023-04-28T21:02:40.428Z,7.46
2023-04-28T21:05:12.789Z,7.37
2023-04-28T21:07:45.478Z,7.33
2023-04-28T21:10:17.556Z,7.38
2023-04-28T21:12:50.989Z,7.45
2023-04-28T21:15:23.032Z,7.52
2023-04-28T21:17:55.113Z,7.42
2023-04-28T21:20:27.226Z,7.40
2023-04-28T21:22:59.286Z,7.37
2023-04-28T21:25:31.727Z,7.46
2023-04-28T21:28:03.778Z,7.53
2023-04-28T21:30:35.857Z,7.53
2023-04-28T21:33:08.100Z,7.52
2023-04-28T21:35:40.122Z,7.44
2023-04-28T21:38:12.480Z,7.43
2023-04-28T21:40:44.464Z,7.40
2023-04-28T21:43:16.926Z,7.53
2023-04-28T21:45:49.033Z,7.56
2023-04-28T21:48:21.493Z,7.51
2023-04-28T21:50:53.744Z,7.61
2023-04-28T21:53:26.003Z,7.46
2023-04-28T21:55:58.073Z,7.47
2023-04-28T21:58:29.998Z,7.52
2023-04-28T22:01:02.851Z,7.58
2023-04-28T22:03:36.319Z,7.42
2023-04-28T22:06:09.133Z,7.37
2023-04-28T22:08:41.751Z,7.37
2023-04-28T22:11:15.882Z,7.36
2023-04-28T22:13:47.980Z,7.33
2023-04-28T22:16:20.633Z,7.50
2023-04-28T22:18:52.965Z,7.42
2023-04-28T22:21:25.659Z,7.43
2023-04-28T22:23:58.053Z,7.32
2023-04-28T22:26:34.584Z,7.40
2023-04-28T22:29:07.100Z,7.42
2023-04-28T22:31:39.448Z,7.22
2023-04-28T22:34:11.845Z,7.17
2023-04-28T22:36:45.231Z,7.09
2023-04-28T22:39:17.237Z,7.00
2023-04-28T22:41:49.470Z,7.00
2023-04-28T22:44:21.452Z,6.86
2023-04-28T22:46:53.644Z,6.85
2023-04-28T22:49:27.568Z,6.77
2023-04-28T22:52:00.067Z,6.82
2023-04-28T22:54:32.250Z,6.74
2023-04-28T22:57:04.240Z,6.76
2023-04-28T22:59:36.219Z,6.59
2023-04-28T23:02:10.123Z,6.68
2023-04-28T23:04:42.751Z,6.50
2023-04-28T23:07:15.102Z,6.53
2023-04-28T23:09:47.654Z,6.27
2023-04-28T23:12:19.822Z,6.19
2023-04-28T23:14:51.982Z,6.24
2023-04-28T23:17:24.138Z,6.17
2023-04-28T23:19:56.455Z,6.22
2023-04-28T23:22:28.543Z,6.02
2023-04-28T23:25:00.901Z,5.99
2023-04-28T23:27:34.271Z,5.98
2023-04-28T23:30:06.927Z,6.04
2023-04-28T23:32:39.239Z,5.91
2023-04-28T23:35:11.547Z,5.82
2023-04-28T23:37:43.664Z,5.91
2023-04-28T23:40:15.979Z,5.77
2023-04-28T23:42:48.484Z,5.77
2023-04-28T23:45:20.955Z,5.75
2023-04-28T23:47:53.585Z,5.75
2023-04-28T23:50:27.494Z,5.86
2023-04-28T23:52:59.503Z,5.74
2023-04-28T23:55:31.771Z,5.74
2023-04-28T23:58:03.867Z,5.68
